PWSweather.com
Personal Weather Stations
Station Observations
SHAHALMS1
Eftra, Falkenberg, HA

EftraFalkenberg, HA

Lat: 56.85, Lon: 12.65

Elevation: 140

Station Type:

http://hem.passagen.se/risarp101

High Low Average
Temperature 72.3°F22.4°C 55.9°F13.3°C 64.0°F17.8°C
Dew Point 63.3°F17.4°C 50.5°F10.3°C 55.5°F13.1°C
Winds 7.0 mph 11.3 kmh Calm Calm 3.0 mph SSE4.8 kmh SSE
Wind Gusts 12.2 mph19.6 kmh -- 3.0 mph4.8 kmh
Humidity 95% 56% 75%
Pressure 29.98 in1015.2 mb 29.92 in1013.2 mb -
Precipitation 0.00 in0.0 mm - -
Hour Temp Dew Point Humidity Winds Wind Gusts Pressure Precip Precip Rate Daily Precip Total
12:00 AM 59.5°F15.3°C 55.0°F12.8°C 85% Calm Calm -- 29.95 in1014.2 mb 0.00 in0.0 mm 0.00 in0.0 mm 0.00 in0.0 mm
12:10 AM 59.9°F15.5°C 56.0°F13.3°C 87% Calm Calm -- 29.95 in1014.2 mb 0.00 in0.0 mm 0.00 in0.0 mm 0.00 in0.0 mm
12:20 AM 59.4°F15.2°C 54.8°F12.7°C 85% Calm Calm -- 29.98 in1015.2 mb 0.00 in0.0 mm 0.00 in0.0 mm 0.00 in0.0 mm
12:30 AM 59.5°F15.3°C 55.3°F12.9°C 86% Calm Calm -- 29.95 in1014.2 mb 0.00 in0.0 mm 0.00 in0.0 mm 0.00 in0.0 mm
12:40 AM 59.7°F15.4°C 55.8°F13.2°C 87% Calm Calm -- 29.95 in1014.2 mb 0.00 in0.0 mm 0.00 in0.0 mm 0.00 in0.0 mm
12:50 AM 59.5°F15.3°C 55.3°F12.9°C 86% Calm Calm -- 29.95 in1014.2 mb 0.00 in0.0 mm 0.00 in0.0 mm 0.00 in0.0 mm
01:00 AM 59.5°F15.3°C 55.7°F13.2°C 87% Calm Calm -- 29.95 in1014.2 mb 0.00 in0.0 mm 0.00 in0.0 mm 0.00 in0.0 mm
01:10 AM 59.4°F15.2°C 55.2°F12.9°C 86% Calm Calm -- 29.95 in1014.2 mb 0.00 in0.0 mm 0.00 in0.0 mm 0.00 in0.0 mm
01:20 AM 59.2°F15.1°C 55.0°F12.8°C 86% Calm Calm -- 29.95 in1014.2 mb 0.00 in0.0 mm 0.00 in0.0 mm 0.00 in0.0 mm
01:30 AM 58.5°F14.7°C 54.0°F12.2°C 85% Calm Calm -- 29.95 in1014.2 mb 0.00 in0.0 mm 0.00 in0.0 mm 0.00 in0.0 mm
01:40 AM 57.9°F14.4°C 53.4°F11.9°C 85% Calm Calm -- 29.95 in1014.2 mb 0.00 in0.0 mm 0.00 in0.0 mm 0.00 in0.0 mm
01:50 AM 57.7°F14.3°C 53.3°F11.8°C 85% Calm Calm -- 29.92 in1013.2 mb 0.00 in0.0 mm 0.00 in0.0 mm 0.00 in0.0 mm
02:00 AM 57.0°F13.9°C 52.6°F11.4°C 85% Calm Calm -- 29.95 in1014.2 mb 0.00 in0.0 mm 0.00 in0.0 mm 0.00 in0.0 mm
02:10 AM 56.7°F13.7°C 52.2°F11.2°C 85% Calm Calm -- 29.95 in1014.2 mb 0.00 in0.0 mm 0.00 in0.0 mm 0.00 in0.0 mm
02:20 AM 56.7°F13.7°C 52.5°F11.4°C 86% Calm Calm -- 29.92 in1013.2 mb 0.00 in0.0 mm 0.00 in0.0 mm 0.00 in0.0 mm
02:30 AM 56.8°F13.8°C 53.0°F11.7°C 87% Calm Calm -- 29.92 in1013.2 mb 0.00 in0.0 mm 0.00 in0.0 mm 0.00 in0.0 mm
02:40 AM 57.2°F14.0°C 54.0°F12.2°C 89% Calm Calm -- 29.92 in1013.2 mb 0.00 in0.0 mm 0.00 in0.0 mm 0.00 in0.0 mm
02:50 AM 57.4°F14.1°C 54.5°F12.5°C 90% Calm Calm -- 29.95 in1014.2 mb 0.00 in0.0 mm 0.00 in0.0 mm 0.00 in0.0 mm
03:00 AM 57.2°F14.0°C 54.0°F12.2°C 89% Calm Calm -- 29.92 in1013.2 mb 0.00 in0.0 mm 0.00 in0.0 mm 0.00 in0.0 mm
03:10 AM 56.8°F13.8°C 53.6°F12.0°C 89% Calm Calm -- 29.92 in1013.2 mb 0.00 in0.0 mm 0.00 in0.0 mm 0.00 in0.0 mm
03:20 AM 56.5°F13.6°C 53.3°F11.8°C 89% Calm Calm -- 29.98 in1015.2 mb 0.00 in0.0 mm 0.00 in0.0 mm 0.00 in0.0 mm
03:30 AM 56.1°F13.4°C 52.6°F11.4°C 88% Calm Calm -- 29.92 in1013.2 mb 0.00 in0.0 mm 0.00 in0.0 mm 0.00 in0.0 mm
03:40 AM 55.9°F13.3°C 52.7°F11.5°C 89% Calm Calm -- 29.92 in1013.2 mb 0.00 in0.0 mm 0.00 in0.0 mm 0.00 in0.0 mm
03:50 AM 55.9°F13.3°C 52.7°F11.5°C 89% Calm Calm -- 29.95 in1014.2 mb 0.00 in0.0 mm 0.00 in0.0 mm 0.00 in0.0 mm
04:00 AM 56.1°F13.4°C 53.2°F11.8°C 90% Calm Calm -- 29.95 in1014.2 mb 0.00 in0.0 mm 0.00 in0.0 mm 0.00 in0.0 mm
04:10 AM 56.3°F13.5°C 53.4°F11.9°C 90% Calm Calm -- 29.95 in1014.2 mb 0.00 in0.0 mm 0.00 in0.0 mm 0.00 in0.0 mm
04:20 AM 56.7°F13.7°C 54.1°F12.3°C 91% Calm Calm -- 29.95 in1014.2 mb 0.00 in0.0 mm 0.00 in0.0 mm 0.00 in0.0 mm
04:30 AM 56.7°F13.7°C 54.1°F12.3°C 91% Calm Calm -- 29.95 in1014.2 mb 0.00 in0.0 mm 0.00 in0.0 mm 0.00 in0.0 mm
04:40 AM 56.7°F13.7°C 54.1°F12.3°C 91% Calm Calm -- 29.95 in1014.2 mb 0.00 in0.0 mm 0.00 in0.0 mm 0.00 in0.0 mm
04:50 AM 56.7°F13.7°C 54.4°F12.4°C 92% Calm Calm -- 29.95 in1014.2 mb 0.00 in0.0 mm 0.00 in0.0 mm 0.00 in0.0 mm
05:00 AM 56.7°F13.7°C 54.4°F12.4°C 92% Calm Calm -- 29.95 in1014.2 mb 0.00 in0.0 mm 0.00 in0.0 mm 0.00 in0.0 mm
05:10 AM 56.8°F13.8°C 54.5°F12.5°C 92% Calm Calm -- 29.95 in1014.2 mb 0.00 in0.0 mm 0.00 in0.0 mm 0.00 in0.0 mm
05:20 AM 57.0°F13.9°C 54.7°F12.6°C 92% Calm Calm -- 29.95 in1014.2 mb 0.00 in0.0 mm 0.00 in0.0 mm 0.00 in0.0 mm
05:30 AM 57.0°F13.9°C 54.7°F12.6°C 92% Calm Calm -- 29.95 in1014.2 mb 0.00 in0.0 mm 0.00 in0.0 mm 0.00 in0.0 mm
05:40 AM 57.0°F13.9°C 54.7°F12.6°C 92% Calm Calm -- 29.95 in1014.2 mb 0.00 in0.0 mm 0.00 in0.0 mm 0.00 in0.0 mm
05:50 AM 57.0°F13.9°C 54.7°F12.6°C 92% Calm Calm -- 29.95 in1014.2 mb 0.00 in0.0 mm 0.00 in0.0 mm 0.00 in0.0 mm
06:00 AM 57.2°F14.0°C 55.2°F12.9°C 93% Calm Calm -- 29.95 in1014.2 mb 0.00 in0.0 mm 0.00 in0.0 mm 0.00 in0.0 mm
06:10 AM 57.4°F14.1°C 55.4°F13.0°C 93% Calm Calm -- 29.95 in1014.2 mb 0.00 in0.0 mm 0.00 in0.0 mm 0.00 in0.0 mm
06:20 AM 57.9°F14.4°C 55.9°F13.3°C 93% Calm Calm -- 29.95 in1014.2 mb 0.00 in0.0 mm 0.00 in0.0 mm 0.00 in0.0 mm
06:30 AM 58.6°F14.8°C 56.9°F13.8°C 94% Calm Calm -- 29.95 in1014.2 mb 0.00 in0.0 mm 0.00 in0.0 mm 0.00 in0.0 mm
06:40 AM 59.2°F15.1°C 57.5°F14.2°C 94% Calm Calm -- 29.95 in1014.2 mb 0.00 in0.0 mm 0.00 in0.0 mm 0.00 in0.0 mm
06:50 AM 60.1°F15.6°C 58.3°F14.6°C 94% Calm Calm -- 29.95 in1014.2 mb 0.00 in0.0 mm 0.00 in0.0 mm 0.00 in0.0 mm
07:00 AM 60.8°F16.0°C 59.1°F15.1°C 94% Calm Calm -- 29.95 in1014.2 mb 0.00 in0.0 mm 0.00 in0.0 mm 0.00 in0.0 mm
07:10 AM 61.2°F16.2°C 59.4°F15.2°C 94% Calm Calm -- 29.95 in1014.2 mb 0.00 in0.0 mm 0.00 in0.0 mm 0.00 in0.0 mm
07:20 AM 62.2°F16.8°C 60.8°F16.0°C 95% Calm Calm -- 29.95 in1014.2 mb 0.00 in0.0 mm 0.00 in0.0 mm 0.00 in0.0 mm
07:30 AM 63.1°F17.3°C 61.4°F16.3°C 94% Calm Calm -- 29.95 in1014.2 mb 0.00 in0.0 mm 0.00 in0.0 mm 0.00 in0.0 mm
07:40 AM 63.9°F17.7°C 62.1°F16.7°C 94% Calm Calm -- 29.95 in1014.2 mb 0.00 in0.0 mm 0.00 in0.0 mm 0.00 in0.0 mm
07:50 AM 64.2°F17.9°C 62.2°F16.8°C 93% Calm Calm -- 29.95 in1014.2 mb 0.00 in0.0 mm 0.00 in0.0 mm 0.00 in0.0 mm
08:00 AM 63.9°F17.7°C 61.5°F16.4°C 92% Calm Calm -- 29.95 in1014.2 mb 0.00 in0.0 mm 0.00 in0.0 mm 0.00 in0.0 mm
08:10 AM 63.7°F17.6°C 61.0°F16.1°C 91% Calm Calm -- 29.95 in1014.2 mb 0.00 in0.0 mm 0.00 in0.0 mm 0.00 in0.0 mm
08:20 AM 64.2°F17.9°C 61.8°F16.6°C 92% Calm Calm -- 29.92 in1013.2 mb 0.00 in0.0 mm 0.00 in0.0 mm 0.00 in0.0 mm
08:30 AM 64.9°F18.3°C 62.2°F16.8°C 91% Calm Calm -- 29.95 in1014.2 mb 0.00 in0.0 mm 0.00 in0.0 mm 0.00 in0.0 mm
08:40 AM 65.3°F18.5°C 62.0°F16.7°C 89% Calm Calm -- 29.95 in1014.2 mb 0.00 in0.0 mm 0.00 in0.0 mm 0.00 in0.0 mm
08:50 AM 65.5°F18.6°C 61.5°F16.4°C 87% Calm Calm -- 29.95 in1014.2 mb 0.00 in0.0 mm 0.00 in0.0 mm 0.00 in0.0 mm
09:00 AM 66.7°F19.3°C 62.1°F16.7°C 85% Calm Calm -- 29.95 in1014.2 mb 0.00 in0.0 mm 0.00 in0.0 mm 0.00 in0.0 mm
09:10 AM 67.5°F19.7°C 62.5°F16.9°C 84% Calm Calm -- 29.95 in1014.2 mb 0.00 in0.0 mm 0.00 in0.0 mm 0.00 in0.0 mm
09:20 AM 68.7°F20.4°C 63.3°F17.4°C 83% Calm Calm -- 29.98 in1015.2 mb 0.00 in0.0 mm 0.00 in0.0 mm 0.00 in0.0 mm
09:30 AM 69.6°F20.9°C 62.8°F17.1°C 79% Calm Calm -- 29.95 in1014.2 mb 0.00 in0.0 mm 0.00 in0.0 mm 0.00 in0.0 mm
09:40 AM 69.1°F20.6°C 61.6°F16.4°C 77% Calm Calm -- 29.95 in1014.2 mb 0.00 in0.0 mm 0.00 in0.0 mm 0.00 in0.0 mm
09:50 AM 69.3°F20.7°C 61.7°F16.5°C 77% Calm Calm -- 29.95 in1014.2 mb 0.00 in0.0 mm 0.00 in0.0 mm 0.00 in0.0 mm
10:00 AM 69.6°F20.9°C 61.7°F16.5°C 76% Calm Calm -- 29.95 in1014.2 mb 0.00 in0.0 mm 0.00 in0.0 mm 0.00 in0.0 mm
10:10 AM 70.2°F21.2°C 61.9°F16.6°C 75% Calm Calm -- 29.95 in1014.2 mb 0.00 in0.0 mm 0.00 in0.0 mm 0.00 in0.0 mm
10:20 AM 70.5°F21.4°C 61.8°F16.6°C 74% Calm Calm -- 29.92 in1013.2 mb 0.00 in0.0 mm 0.00 in0.0 mm 0.00 in0.0 mm
10:30 AM 70.7°F21.5°C 60.4°F15.8°C 70% Calm Calm -- 29.95 in1014.2 mb 0.00 in0.0 mm 0.00 in0.0 mm 0.00 in0.0 mm
10:40 AM 71.1°F21.7°C 60.4°F15.8°C 69% Calm Calm -- 29.95 in1014.2 mb 0.00 in0.0 mm 0.00 in0.0 mm 0.00 in0.0 mm
10:50 AM 71.8°F22.1°C 60.2°F15.7°C 67% 3.8 mph WSW6.1 kmh WSW 5.7 mph9.2 kmh 29.95 in1014.2 mb 0.00 in0.0 mm 0.00 in0.0 mm 0.00 in0.0 mm
11:00 AM 72.1°F22.3°C 59.3°F15.2°C 64% 4.4 mph W7.1 kmh W 9.7 mph15.6 kmh 29.95 in1014.2 mb 0.00 in0.0 mm 0.00 in0.0 mm 0.00 in0.0 mm
11:10 AM 71.8°F22.1°C 58.5°F14.7°C 63% 3.9 mph WNW6.3 kmh WNW 5.4 mph8.7 kmh 29.95 in1014.2 mb 0.00 in0.0 mm 0.00 in0.0 mm 0.00 in0.0 mm
11:20 AM 71.6°F22.0°C 57.9°F14.4°C 62% 4.4 mph W7.1 kmh W 5.4 mph8.7 kmh 29.95 in1014.2 mb 0.00 in0.0 mm 0.00 in0.0 mm 0.00 in0.0 mm
11:30 AM 72.0°F22.2°C 58.2°F14.6°C 62% 4.4 mph W7.1 kmh W 5.4 mph8.7 kmh 29.95 in1014.2 mb 0.00 in0.0 mm 0.00 in0.0 mm 0.00 in0.0 mm
11:40 AM 72.3°F22.4°C 58.1°F14.5°C 61% 4.4 mph W7.1 kmh W 5.4 mph8.7 kmh 29.95 in1014.2 mb 0.00 in0.0 mm 0.00 in0.0 mm 0.00 in0.0 mm
11:50 AM 71.4°F21.9°C 57.3°F14.1°C 61% 3.2 mph WNW5.1 kmh WNW 5.7 mph9.2 kmh 29.95 in1014.2 mb 0.00 in0.0 mm 0.00 in0.0 mm 0.00 in0.0 mm
12:00 PM 71.1°F21.7°C 56.9°F13.8°C 61% 4.8 mph NW7.7 kmh NW 10.4 mph16.7 kmh 29.92 in1013.2 mb 0.00 in0.0 mm 0.00 in0.0 mm 0.00 in0.0 mm
12:10 PM 71.1°F21.7°C 56.9°F13.8°C 61% 5.3 mph WNW8.5 kmh WNW 6.8 mph10.9 kmh 29.92 in1013.2 mb 0.00 in0.0 mm 0.00 in0.0 mm 0.00 in0.0 mm
12:20 PM 71.1°F21.7°C 56.9°F13.8°C 61% 4.7 mph SSW7.6 kmh SSW 6.1 mph9.8 kmh 29.92 in1013.2 mb 0.00 in0.0 mm 0.00 in0.0 mm 0.00 in0.0 mm
12:30 PM 71.1°F21.7°C 56.9°F13.8°C 61% 2.7 mph NNW4.3 kmh NNW 7.5 mph12.1 kmh 29.95 in1014.2 mb 0.00 in0.0 mm 0.00 in0.0 mm 0.00 in0.0 mm
12:40 PM 71.1°F21.7°C 56.9°F13.8°C 61% 5.4 mph NW8.7 kmh NW 12.2 mph19.6 kmh 29.95 in1014.2 mb 0.00 in0.0 mm 0.00 in0.0 mm 0.00 in0.0 mm
12:50 PM 71.1°F21.7°C 56.5°F13.6°C 60% 7.0 mph NW11.3 kmh NW 10.0 mph16.1 kmh 29.95 in1014.2 mb 0.00 in0.0 mm 0.00 in0.0 mm 0.00 in0.0 mm
01:00 PM 71.1°F21.7°C 56.9°F13.8°C 61% 4.6 mph NW7.4 kmh NW 6.4 mph10.3 kmh 29.95 in1014.2 mb 0.00 in0.0 mm 0.00 in0.0 mm 0.00 in0.0 mm
01:10 PM 71.4°F21.9°C 57.3°F14.1°C 61% 4.0 mph NW6.4 kmh NW 5.4 mph8.7 kmh 29.95 in1014.2 mb 0.00 in0.0 mm 0.00 in0.0 mm 0.00 in0.0 mm
01:20 PM 71.6°F22.0°C 57.0°F13.9°C 60% 3.2 mph W5.1 kmh W 3.9 mph6.3 kmh 29.95 in1014.2 mb 0.00 in0.0 mm 0.00 in0.0 mm 0.00 in0.0 mm
01:30 PM 71.1°F21.7°C 56.9°F13.8°C 61% 3.2 mph W5.1 kmh W 3.9 mph6.3 kmh 29.95 in1014.2 mb 0.00 in0.0 mm 0.00 in0.0 mm 0.00 in0.0 mm
01:40 PM 70.9°F21.6°C 56.8°F13.8°C 61% 4.9 mph W7.9 kmh W 6.1 mph9.8 kmh 29.95 in1014.2 mb 0.00 in0.0 mm 0.00 in0.0 mm 0.00 in0.0 mm
01:50 PM 70.9°F21.6°C 57.2°F14.0°C 62% 4.9 mph W7.9 kmh W 6.1 mph9.8 kmh 29.95 in1014.2 mb 0.00 in0.0 mm 0.00 in0.0 mm 0.00 in0.0 mm
02:00 PM 70.9°F21.6°C 57.2°F14.0°C 62% 4.9 mph W7.9 kmh W 6.1 mph9.8 kmh 29.95 in1014.2 mb 0.00 in0.0 mm 0.00 in0.0 mm 0.00 in0.0 mm
02:10 PM 70.7°F21.5°C 57.0°F13.9°C 62% 4.9 mph W7.9 kmh W 6.1 mph9.8 kmh 29.95 in1014.2 mb 0.00 in0.0 mm 0.00 in0.0 mm 0.00 in0.0 mm
02:20 PM 70.7°F21.5°C 57.0°F13.9°C 62% 4.9 mph W7.9 kmh W 6.1 mph9.8 kmh 29.95 in1014.2 mb 0.00 in0.0 mm 0.00 in0.0 mm 0.00 in0.0 mm
02:30 PM 70.7°F21.5°C 57.0°F13.9°C 62% 4.9 mph W7.9 kmh W 6.1 mph9.8 kmh 29.92 in1013.2 mb 0.00 in0.0 mm 0.00 in0.0 mm 0.00 in0.0 mm
02:40 PM 70.7°F21.5°C 57.0°F13.9°C 62% 4.9 mph W7.9 kmh W 6.1 mph9.8 kmh 29.92 in1013.2 mb 0.00 in0.0 mm 0.00 in0.0 mm 0.00 in0.0 mm
02:50 PM 70.7°F21.5°C 56.6°F13.7°C 61% 4.9 mph W7.9 kmh W 6.1 mph9.8 kmh 29.95 in1014.2 mb 0.00 in0.0 mm 0.00 in0.0 mm 0.00 in0.0 mm
03:00 PM 70.3°F21.3°C 55.8°F13.2°C 60% 4.9 mph W7.9 kmh W 6.1 mph9.8 kmh 29.95 in1014.2 mb 0.00 in0.0 mm 0.00 in0.0 mm 0.00 in0.0 mm
03:10 PM 70.5°F21.4°C 55.5°F13.1°C 59% 4.9 mph W7.9 kmh W 6.1 mph9.8 kmh 29.95 in1014.2 mb 0.00 in0.0 mm 0.00 in0.0 mm 0.00 in0.0 mm
03:20 PM 70.7°F21.5°C 55.7°F13.2°C 59% 4.9 mph W7.9 kmh W 6.1 mph9.8 kmh 29.95 in1014.2 mb 0.00 in0.0 mm 0.00 in0.0 mm 0.00 in0.0 mm
03:30 PM 70.7°F21.5°C 55.7°F13.2°C 59% 4.9 mph W7.9 kmh W 6.1 mph9.8 kmh 29.98 in1015.2 mb 0.00 in0.0 mm 0.00 in0.0 mm 0.00 in0.0 mm
03:40 PM 70.5°F21.4°C 55.0°F12.8°C 58% 4.9 mph W7.9 kmh W 6.1 mph9.8 kmh 29.98 in1015.2 mb 0.00 in0.0 mm 0.00 in0.0 mm 0.00 in0.0 mm
03:50 PM 70.7°F21.5°C 55.7°F13.2°C 59% 4.9 mph W7.9 kmh W 6.1 mph9.8 kmh 29.95 in1014.2 mb 0.00 in0.0 mm 0.00 in0.0 mm 0.00 in0.0 mm
04:00 PM 70.7°F21.5°C 55.2°F12.9°C 58% 4.9 mph W7.9 kmh W 6.1 mph9.8 kmh 29.95 in1014.2 mb 0.00 in0.0 mm 0.00 in0.0 mm 0.00 in0.0 mm
04:10 PM 70.9°F21.6°C 55.4°F13.0°C 58% 4.9 mph W7.9 kmh W 6.1 mph9.8 kmh 29.95 in1014.2 mb 0.00 in0.0 mm 0.00 in0.0 mm 0.00 in0.0 mm
04:20 PM 71.2°F21.8°C 55.7°F13.2°C 58% 4.9 mph W7.9 kmh W 6.1 mph9.8 kmh 29.95 in1014.2 mb 0.00 in0.0 mm 0.00 in0.0 mm 0.00 in0.0 mm
04:30 PM 71.2°F21.8°C 55.2°F12.9°C 57% 4.9 mph W7.9 kmh W 6.1 mph9.8 kmh 29.95 in1014.2 mb 0.00 in0.0 mm 0.00 in0.0 mm 0.00 in0.0 mm
04:40 PM 71.4°F21.9°C 55.4°F13.0°C 57% 4.9 mph W7.9 kmh W 6.1 mph9.8 kmh 29.95 in1014.2 mb 0.00 in0.0 mm 0.00 in0.0 mm 0.00 in0.0 mm
04:50 PM 70.9°F21.6°C 54.4°F12.4°C 56% 4.9 mph W7.9 kmh W 6.1 mph9.8 kmh 29.95 in1014.2 mb 0.00 in0.0 mm 0.00 in0.0 mm 0.00 in0.0 mm
05:00 PM 70.7°F21.5°C 54.2°F12.3°C 56% 4.9 mph W7.9 kmh W 6.1 mph9.8 kmh 29.95 in1014.2 mb 0.00 in0.0 mm 0.00 in0.0 mm 0.00 in0.0 mm
05:10 PM 70.7°F21.5°C 54.7°F12.6°C 57% 4.9 mph W7.9 kmh W 6.1 mph9.8 kmh 29.95 in1014.2 mb 0.00 in0.0 mm 0.00 in0.0 mm 0.00 in0.0 mm
05:20 PM 70.7°F21.5°C 54.7°F12.6°C 57% 4.9 mph W7.9 kmh W 6.1 mph9.8 kmh 29.95 in1014.2 mb 0.00 in0.0 mm 0.00 in0.0 mm 0.00 in0.0 mm
05:30 PM 70.7°F21.5°C 54.7°F12.6°C 57% 4.9 mph W7.9 kmh W 6.1 mph9.8 kmh 29.95 in1014.2 mb 0.00 in0.0 mm 0.00 in0.0 mm 0.00 in0.0 mm
05:40 PM 70.7°F21.5°C 54.7°F12.6°C 57% 4.9 mph W7.9 kmh W 6.1 mph9.8 kmh 29.95 in1014.2 mb 0.00 in0.0 mm 0.00 in0.0 mm 0.00 in0.0 mm
05:50 PM 69.8°F21.0°C 53.9°F12.2°C 57% 4.9 mph W7.9 kmh W 6.1 mph9.8 kmh 29.95 in1014.2 mb 0.00 in0.0 mm 0.00 in0.0 mm 0.00 in0.0 mm
06:00 PM 69.1°F20.6°C 53.2°F11.8°C 57% 4.9 mph W7.9 kmh W 6.1 mph9.8 kmh 29.95 in1014.2 mb 0.00 in0.0 mm 0.00 in0.0 mm 0.00 in0.0 mm
06:10 PM 68.4°F20.2°C 53.0°F11.7°C 58% 4.9 mph W7.9 kmh W 6.1 mph9.8 kmh 29.95 in1014.2 mb 0.00 in0.0 mm 0.00 in0.0 mm 0.00 in0.0 mm
06:20 PM 67.6°F19.8°C 53.3°F11.8°C 60% 4.9 mph W7.9 kmh W 6.1 mph9.8 kmh 29.95 in1014.2 mb 0.00 in0.0 mm 0.00 in0.0 mm 0.00 in0.0 mm
06:30 PM 67.5°F19.7°C 53.5°F11.9°C 61% 4.9 mph W7.9 kmh W 6.1 mph9.8 kmh 29.95 in1014.2 mb 0.00 in0.0 mm 0.00 in0.0 mm 0.00 in0.0 mm
06:40 PM 67.1°F19.5°C 53.2°F11.8°C 61% 4.9 mph W7.9 kmh W 6.1 mph9.8 kmh 29.95 in1014.2 mb 0.00 in0.0 mm 0.00 in0.0 mm 0.00 in0.0 mm
06:50 PM 66.7°F19.3°C 53.3°F11.8°C 62% 4.9 mph W7.9 kmh W 6.1 mph9.8 kmh 29.92 in1013.2 mb 0.00 in0.0 mm 0.00 in0.0 mm 0.00 in0.0 mm
07:00 PM 66.7°F19.3°C 53.3°F11.8°C 62% 4.9 mph W7.9 kmh W 6.1 mph9.8 kmh 29.95 in1014.2 mb 0.00 in0.0 mm 0.00 in0.0 mm 0.00 in0.0 mm
07:10 PM 66.4°F19.1°C 53.0°F11.7°C 62% 4.9 mph W7.9 kmh W 6.1 mph9.8 kmh 29.95 in1014.2 mb 0.00 in0.0 mm 0.00 in0.0 mm 0.00 in0.0 mm
07:20 PM 66.0°F18.9°C 53.5°F11.9°C 64% 4.9 mph W7.9 kmh W 6.1 mph9.8 kmh 29.92 in1013.2 mb 0.00 in0.0 mm 0.00 in0.0 mm 0.00 in0.0 mm
07:30 PM 65.3°F18.5°C 52.8°F11.6°C 64% 4.9 mph W7.9 kmh W 6.1 mph9.8 kmh 29.92 in1013.2 mb 0.00 in0.0 mm 0.00 in0.0 mm 0.00 in0.0 mm
07:40 PM 64.6°F18.1°C 52.5°F11.4°C 65% 4.9 mph W7.9 kmh W 6.1 mph9.8 kmh 29.92 in1013.2 mb 0.00 in0.0 mm 0.00 in0.0 mm 0.00 in0.0 mm
07:50 PM 63.7°F17.6°C 51.7°F10.9°C 65% 4.9 mph W7.9 kmh W 6.1 mph9.8 kmh 29.92 in1013.2 mb 0.00 in0.0 mm 0.00 in0.0 mm 0.00 in0.0 mm
08:00 PM 63.0°F17.2°C 51.4°F10.8°C 66% 4.9 mph W7.9 kmh W 6.1 mph9.8 kmh 29.92 in1013.2 mb 0.00 in0.0 mm 0.00 in0.0 mm 0.00 in0.0 mm
08:10 PM 62.4°F16.9°C 51.7°F10.9°C 68% 4.9 mph W7.9 kmh W 6.1 mph9.8 kmh 29.92 in1013.2 mb 0.00 in0.0 mm 0.00 in0.0 mm 0.00 in0.0 mm
08:20 PM 61.7°F16.5°C 51.4°F10.8°C 69% 4.9 mph W7.9 kmh W 6.1 mph9.8 kmh 29.92 in1013.2 mb 0.00 in0.0 mm 0.00 in0.0 mm 0.00 in0.0 mm
08:30 PM 60.8°F16.0°C 51.0°F10.6°C 70% 4.9 mph W7.9 kmh W 6.1 mph9.8 kmh 29.92 in1013.2 mb 0.00 in0.0 mm 0.00 in0.0 mm 0.00 in0.0 mm
08:40 PM 60.3°F15.7°C 50.8°F10.4°C 71% 4.9 mph W7.9 kmh W 6.1 mph9.8 kmh 29.92 in1013.2 mb 0.00 in0.0 mm 0.00 in0.0 mm 0.00 in0.0 mm
08:50 PM 59.7°F15.4°C 50.7°F10.4°C 72% 4.9 mph W7.9 kmh W 6.1 mph9.8 kmh 29.92 in1013.2 mb 0.00 in0.0 mm 0.00 in0.0 mm 0.00 in0.0 mm
09:00 PM 59.2°F15.1°C 50.5°F10.3°C 73% 4.9 mph W7.9 kmh W 6.1 mph9.8 kmh 29.92 in1013.2 mb 0.00 in0.0 mm 0.00 in0.0 mm 0.00 in0.0 mm
09:10 PM 58.8°F14.9°C 50.5°F10.3°C 74% 4.9 mph W7.9 kmh W 6.1 mph9.8 kmh 29.92 in1013.2 mb 0.00 in0.0 mm 0.00 in0.0 mm 0.00 in0.0 mm
09:20 PM 58.6°F14.8°C 50.7°F10.4°C 75% 4.9 mph W7.9 kmh W 6.1 mph9.8 kmh 29.92 in1013.2 mb 0.00 in0.0 mm 0.00 in0.0 mm 0.00 in0.0 mm
09:30 PM 58.5°F14.7°C 50.9°F10.5°C 76% 4.9 mph W7.9 kmh W 6.1 mph9.8 kmh 29.92 in1013.2 mb 0.00 in0.0 mm 0.00 in0.0 mm 0.00 in0.0 mm
09:40 PM 58.3°F14.6°C 51.4°F10.8°C 78% 4.9 mph W7.9 kmh W 6.1 mph9.8 kmh 29.92 in1013.2 mb 0.00 in0.0 mm 0.00 in0.0 mm 0.00 in0.0 mm
09:50 PM 57.9°F14.4°C 50.8°F10.4°C 77% 4.9 mph W7.9 kmh W 6.1 mph9.8 kmh 29.92 in1013.2 mb 0.00 in0.0 mm 0.00 in0.0 mm 0.00 in0.0 mm
10:00 PM 57.7°F14.3°C 50.9°F10.5°C 78% 4.9 mph W7.9 kmh W 6.1 mph9.8 kmh 29.92 in1013.2 mb 0.00 in0.0 mm 0.00 in0.0 mm 0.00 in0.0 mm
10:10 PM 57.4°F14.1°C 50.9°F10.5°C 79% 4.9 mph W7.9 kmh W 6.1 mph9.8 kmh 29.92 in1013.2 mb 0.00 in0.0 mm 0.00 in0.0 mm 0.00 in0.0 mm
10:20 PM 57.6°F14.2°C 51.4°F10.8°C 80% 4.9 mph W7.9 kmh W 6.1 mph9.8 kmh 29.92 in1013.2 mb 0.00 in0.0 mm 0.00 in0.0 mm 0.00 in0.0 mm
10:30 PM 57.9°F14.4°C 52.5°F11.4°C 82% 4.9 mph W7.9 kmh W 6.1 mph9.8 kmh 29.92 in1013.2 mb 0.00 in0.0 mm 0.00 in0.0 mm 0.00 in0.0 mm
10:40 PM 58.5°F14.7°C 53.0°F11.7°C 82% 4.9 mph W7.9 kmh W 6.1 mph9.8 kmh 29.92 in1013.2 mb 0.00 in0.0 mm 0.00 in0.0 mm 0.00 in0.0 mm
10:50 PM 58.6°F14.8°C 53.5°F11.9°C 83% 4.9 mph W7.9 kmh W 6.1 mph9.8 kmh 29.92 in1013.2 mb 0.00 in0.0 mm 0.00 in0.0 mm 0.00 in0.0 mm
11:00 PM 58.6°F14.8°C 53.2°F11.8°C 82% 4.9 mph W7.9 kmh W 6.1 mph9.8 kmh 29.92 in1013.2 mb 0.00 in0.0 mm 0.00 in0.0 mm 0.00 in0.0 mm
11:10 PM 58.1°F14.5°C 52.3°F11.3°C 81% 4.9 mph W7.9 kmh W 6.1 mph9.8 kmh 29.92 in1013.2 mb 0.00 in0.0 mm 0.00 in0.0 mm 0.00 in0.0 mm
11:20 PM 57.6°F14.2°C 51.8°F11.0°C 81% 4.9 mph W7.9 kmh W 6.1 mph9.8 kmh 29.92 in1013.2 mb 0.00 in0.0 mm 0.00 in0.0 mm 0.00 in0.0 mm
11:30 PM 57.0°F13.9°C 51.2°F10.7°C 81% 4.9 mph W7.9 kmh W 6.1 mph9.8 kmh 29.92 in1013.2 mb 0.00 in0.0 mm 0.00 in0.0 mm 0.00 in0.0 mm
11:40 PM 56.5°F13.6°C 50.7°F10.4°C 81% 4.9 mph W7.9 kmh W 6.1 mph9.8 kmh 29.92 in1013.2 mb 0.00 in0.0 mm 0.00 in0.0 mm 0.00 in0.0 mm
11:50 PM 56.3°F13.5°C 50.9°F10.5°C 82% 4.9 mph W7.9 kmh W 6.1 mph9.8 kmh 29.92 in1013.2 mb 0.00 in0.0 mm 0.00 in0.0 mm 0.00 in0.0 mm